Time;durP1;ratioP1;P1;durP2;ratioP2;P2;SDS_P1;SDS_P2;PMS_P1;PMS_P2;Temp;Humidity;BMP_temperature;BMP_pressure;BME280_temperature;BME280_humidity;BME280_pressure;Samples;Min_cycle;Max_cycle;Signal;HPM_P1;HPM_P2
2022/11/06 00:00:42;;;;;;;5.90;2.17;;;7.10;99.90;;;;;;6157645;23;20168;-46
2022/11/06 00:03:08;;;;;;;5.83;2.53;;;7.10;99.90;;;;;;6157972;23;20208;-48
2022/11/06 00:08:33;;;;;;;7.43;2.60;;;7.00;99.90;;;;;;6157787;23;20674;-48
2022/11/06 00:10:59;;;;;;;6.33;2.60;;;6.90;99.90;;;;;;6158426;23;20232;-50
2022/11/06 00:13:25;;;;;;;4.57;2.83;;;6.90;99.90;;;;;;6157820;23;20161;-48
2022/11/06 00:15:50;;;;;;;4.50;2.80;;;6.90;99.90;;;;;;6158009;23;20154;-48
2022/11/06 00:18:16;;;;;;;5.47;3.07;;;6.90;99.90;;;;;;6157481;23;20550;-48
2022/11/06 00:20:42;;;;;;;8.03;2.73;;;6.80;99.90;;;;;;6157469;23;20522;-47
2022/11/06 00:23:07;;;;;;;6.13;2.70;;;6.70;99.90;;;;;;6157670;23;20181;-47
2022/11/06 00:25:33;;;;;;;7.70;3.30;;;6.80;99.90;;;;;;6158038;23;20180;-49
2022/11/06 00:27:59;;;;;;;9.27;2.97;;;6.70;99.90;;;;;;6157953;23;20320;-48
2022/11/06 00:30:25;;;;;;;6.07;2.90;;;6.70;99.90;;;;;;6157696;23;20640;-48
2022/11/06 00:32:50;;;;;;;6.73;2.30;;;6.70;99.90;;;;;;6157917;23;20487;-46
2022/11/06 00:35:16;;;;;;;4.07;2.80;;;6.70;99.90;;;;;;6157659;23;20154;-48
2022/11/06 00:37:41;;;;;;;4.90;2.80;;;6.60;99.90;;;;;;6157674;23;20177;-48
2022/11/06 00:40:07;;;;;;;3.83;2.53;;;6.60;99.90;;;;;;6158079;23;20621;-48
2022/11/06 00:42:33;;;;;;;5.87;2.73;;;6.60;99.90;;;;;;6157771;23;20161;-48
2022/11/06 00:44:58;;;;;;;4.23;2.40;;;6.50;99.90;;;;;;6158216;23;20158;-48
2022/11/06 00:47:24;;;;;;;5.10;2.10;;;6.50;99.90;;;;;;6157888;23;20181;-48
2022/11/06 00:49:50;;;;;;;4.23;2.30;;;6.50;99.90;;;;;;6158191;23;20173;-47
2022/11/06 00:52:15;;;;;;;5.03;2.50;;;6.50;99.90;;;;;;6158155;23;20484;-49
2022/11/06 00:54:41;;;;;;;7.33;2.33;;;6.50;99.90;;;;;;6158168;23;20154;-48
2022/11/06 00:57:06;;;;;;;4.60;2.43;;;6.50;99.90;;;;;;6158298;23;20189;-47
2022/11/06 00:59:32;;;;;;;9.77;2.30;;;6.50;99.90;;;;;;6157903;23;20160;-47
2022/11/06 01:01:58;;;;;;;2.20;2.00;;;6.50;99.90;;;;;;6158202;23;20154;-49
2022/11/06 01:04:24;;;;;;;5.93;2.20;;;6.50;99.90;;;;;;6158521;23;20598;-49
2022/11/06 01:06:53;;;;;;;3.50;1.87;;;6.50;99.90;;;;;;6157990;23;20203;-48
2022/11/06 01:09:21;;;;;;;3.57;1.57;;;6.40;99.90;;;;;;6157919;23;20181;-49
2022/11/06 01:11:49;;;;;;;4.07;1.70;;;6.40;99.90;;;;;;6157908;23;20154;-48
2022/11/06 01:14:16;;;;;;;3.93;1.70;;;6.40;99.90;;;;;;6158324;23;20596;-47
2022/11/06 01:16:42;;;;;;;3.23;1.67;;;6.30;99.90;;;;;;6158204;23;20157;-47
2022/11/06 01:19:10;;;;;;;2.30;1.63;;;6.30;99.90;;;;;;6157739;23;20181;-49
2022/11/06 01:21:38;;;;;;;3.20;1.60;;;6.30;99.90;;;;;;6155804;23;20564;-48
2022/11/06 01:24:10;;;;;;;4.57;1.87;;;6.30;99.90;;;;;;6157879;23;20245;-48
2022/11/06 01:26:36;;;;;;;6.87;1.90;;;6.20;99.90;;;;;;6157997;23;20620;-48
2022/11/06 01:29:03;;;;;;;4.10;1.50;;;6.20;99.90;;;;;;6157681;23;20211;-48
2022/11/06 01:31:31;;;;;;;4.93;2.00;;;6.20;99.90;;;;;;6157496;23;20158;-48
2022/11/06 01:33:58;;;;;;;2.73;1.77;;;6.20;99.90;;;;;;6157239;23;20165;-48
2022/11/06 01:36:24;;;;;;;6.67;1.87;;;6.20;99.90;;;;;;6157438;23;20204;-48
2022/11/06 01:38:53;;;;;;;6.37;1.80;;;6.20;99.90;;;;;;6157594;23;20178;-47
2022/11/06 01:41:23;;;;;;;5.43;2.17;;;6.20;99.90;;;;;;6157464;23;20151;-48
2022/11/06 01:43:57;;;;;;;4.07;2.03;;;6.10;99.90;;;;;;6157378;23;20160;-48
2022/11/06 01:46:25;;;;;;;5.97;1.77;;;6.10;99.90;;;;;;6157911;23;20142;-47
2022/11/06 01:49:10;;;;;;;5.93;2.00;;;6.10;99.90;;;;;;6156913;23;20499;-48
2022/11/06 01:51:43;;;;;;;3.33;2.00;;;6.10;99.90;;;;;;6156865;23;20228;-49
2022/11/06 01:54:11;;;;;;;3.57;1.80;;;6.10;99.90;;;;;;6157209;23;20151;-48
2022/11/06 01:56:37;;;;;;;4.10;1.83;;;6.10;99.90;;;;;;6157438;23;20195;-48
2022/11/06 01:59:05;;;;;;;4.97;2.27;;;6.00;99.90;;;;;;6157505;23;20182;-48
2022/11/06 02:01:31;;;;;;;4.70;1.70;;;6.00;99.90;;;;;;6156804;23;20667;-48
2022/11/06 02:04:13;;;;;;;3.37;1.70;;;6.00;99.90;;;;;;6157166;23;20156;-49
2022/11/06 02:06:38;;;;;;;4.30;1.90;;;5.90;99.90;;;;;;6157628;23;20149;-49
2022/11/06 02:09:10;;;;;;;5.40;1.87;;;6.00;99.90;;;;;;6130652;23;20193;-47
2022/11/06 02:11:43;;;;;;;4.73;1.57;;;6.00;99.90;;;;;;6157189;23;20144;-47
2022/11/06 02:14:44;;;;;;;3.30;1.73;;;6.10;99.90;;;;;;6157131;23;20167;-49
2022/11/06 02:18:05;;;;;;;2.53;1.63;;;6.10;99.90;;;;;;6144082;23;20165;-49
2022/11/06 02:20:43;;;;;;;3.57;2.07;;;6.20;99.90;;;;;;6124693;23;20176;-48
2022/11/06 02:23:45;;;;;;;3.17;1.60;;;6.20;99.90;;;;;;6156671;23;20650;-49
2022/11/06 02:26:48;;;;;;;2.67;1.60;;;6.30;99.90;;;;;;6156872;23;20172;-46
2022/11/06 02:29:20;;;;;;;3.43;1.60;;;6.40;99.90;;;;;;6156324;23;20181;-47
2022/11/06 02:31:48;;;;;;;3.27;1.73;;;6.40;99.90;;;;;;6157561;23;20657;-48
2022/11/06 02:34:17;;;;;;;6.27;1.70;;;6.50;99.90;;;;;;6155811;23;20620;-48
2022/11/06 02:36:50;;;;;;;5.57;1.60;;;6.50;99.90;;;;;;6157094;23;20667;-48
2022/11/06 02:39:19;;;;;;;3.47;1.53;;;6.50;99.90;;;;;;6157415;23;20187;-48
2022/11/06 02:41:46;;;;;;;5.17;1.87;;;6.50;99.90;;;;;;6157335;23;20159;-48
2022/11/06 02:44:17;;;;;;;4.33;1.80;;;6.60;99.90;;;;;;6157294;23;20665;-47
2022/11/06 02:46:48;;;;;;;5.10;1.87;;;6.60;99.90;;;;;;6157279;23;20279;-48
2022/11/06 02:49:37;;;;;;;6.70;1.60;;;6.60;99.90;;;;;;6157101;23;20184;-48
2022/11/06 02:52:08;;;;;;;2.60;1.50;;;6.60;99.90;;;;;;6146396;23;20189;-47
2022/11/06 02:54:39;;;;;;;6.20;1.60;;;6.60;99.90;;;;;;6157533;23;20164;-49
2022/11/06 02:57:09;;;;;;;5.57;1.60;;;6.60;99.90;;;;;;6131455;23;20187;-49
2022/11/06 02:59:42;;;;;;;5.97;1.50;;;6.70;99.90;;;;;;6157660;23;20506;-47
2022/11/06 03:02:15;;;;;;;8.93;1.87;;;6.70;99.90;;;;;;6157533;23;20180;-48
2022/11/06 03:05:01;;;;;;;7.27;1.93;;;6.70;99.90;;;;;;6157496;23;20602;-48
2022/11/06 03:07:34;;;;;;;2.27;1.50;;;6.70;99.90;;;;;;6157880;23;20180;-47
2022/11/06 03:10:00;;;;;;;7.63;1.90;;;6.60;99.90;;;;;;6157914;23;20179;-49
2022/11/06 03:12:32;;;;;;;3.63;1.70;;;6.70;99.90;;;;;;6158627;23;20153;-49
2022/11/06 03:15:25;;;;;;;9.00;1.93;;;6.70;99.90;;;;;;6159666;23;20168;-47
2022/11/06 03:18:05;;;;;;;6.20;1.70;;;6.70;99.90;;;;;;6159024;23;20176;-48
2022/11/06 03:20:47;;;;;;;3.67;1.50;;;6.70;99.90;;;;;;6159173;23;20183;-48
2022/11/06 03:23:19;;;;;;;7.03;1.87;;;6.70;99.90;;;;;;6114559;23;20208;-43
2022/11/06 03:25:59;;;;;;;4.13;1.40;;;6.70;99.90;;;;;;6099586;23;20139;-44
2022/11/06 03:28:33;;;;;;;8.10;2.07;;;6.70;99.90;;;;;;6054695;23;20190;-44
2022/11/06 03:31:04;;;;;;;2.33;1.37;;;6.70;99.90;;;;;;6070627;23;20593;-44
2022/11/06 03:33:42;;;;;;;10.47;1.93;;;6.80;99.90;;;;;;6070348;23;20575;-46
2022/11/06 03:36:10;;;;;;;4.70;1.67;;;6.80;99.90;;;;;;6070295;23;20595;-45
2022/11/06 03:38:57;;;;;;;4.40;1.90;;;6.80;99.90;;;;;;6070355;23;20184;-45
2022/11/06 03:41:28;;;;;;;6.07;1.57;;;6.90;99.90;;;;;;6070406;23;20152;-45
2022/11/06 03:43:56;;;;;;;6.20;1.67;;;6.90;99.90;;;;;;6045381;23;20563;-44
2022/11/06 03:46:24;;;;;;;5.40;1.70;;;7.00;99.90;;;;;;6070406;23;20230;-44
2022/11/06 03:48:57;;;;;;;5.27;1.60;;;7.00;99.90;;;;;;6070113;23;20182;-43
2022/11/06 03:51:52;;;;;;;8.50;2.30;;;6.90;99.90;;;;;;6069899;23;20577;-43
2022/11/06 03:54:33;;;;;;;6.80;2.10;;;6.90;99.90;;;;;;6070036;23;20151;-42
2022/11/06 03:57:06;;;;;;;4.90;1.80;;;6.90;99.90;;;;;;6069702;23;20193;-43
2022/11/06 03:59:38;;;;;;;3.83;1.50;;;6.90;99.90;;;;;;6044170;23;20217;-43
2022/11/06 04:02:04;;;;;;;9.87;2.10;;;6.80;99.90;;;;;;6070413;23;20151;-43
2022/11/06 04:04:37;;;;;;;4.67;1.90;;;6.80;99.90;;;;;;6069668;23;20162;-43
2022/11/06 04:07:14;;;;;;;5.83;1.80;;;6.80;99.90;;;;;;6069576;23;20491;-45
2022/11/06 04:15:18;;;;;;;7.40;1.83;;;6.80;99.90;;;;;;6069983;23;20229;-42
2022/11/06 04:17:44;;;;;;;7.57;1.93;;;6.80;99.90;;;;;;6069524;23;20201;-44
2022/11/06 04:21:20;;;;;;;12.23;2.10;;;6.80;99.90;;;;;;6069988;23;20158;-42
2022/11/06 04:23:27;;;;;;;6.43;2.53;;;6.80;99.90;;;;;;6068795;23;20189;-42
2022/11/06 04:26:34;;;;;;;6.67;2.20;;;6.80;99.90;;;;;;6054133;23;20223;-44
2022/11/06 04:29:09;;;;;;;12.10;2.63;;;6.80;99.90;;;;;;6069397;23;20567;-44
2022/11/06 04:32:01;;;;;;;4.37;2.10;;;6.70;99.90;;;;;;6069626;23;20490;-43
2022/11/06 04:34:30;;;;;;;5.50;2.40;;;6.70;99.90;;;;;;6069899;23;20194;-42
2022/11/06 04:37:05;;;;;;;3.03;2.40;;;6.80;99.90;;;;;;6069513;23;20528;-42
2022/11/06 04:39:55;;;;;;;8.77;3.03;;;6.70;99.90;;;;;;6069819;23;20151;-43
2022/11/06 04:42:29;;;;;;;5.93;2.80;;;6.70;99.90;;;;;;6069550;23;20148;-43
2022/11/06 04:45:01;;;;;;;8.30;3.40;;;6.70;99.90;;;;;;6070142;23;20162;-42
2022/11/06 04:47:27;;;;;;;8.73;2.90;;;6.60;99.90;;;;;;6069284;23;20179;-44
2022/11/06 04:49:57;;;;;;;4.67;2.90;;;6.70;99.90;;;;;;6069318;23;20265;-42
2022/11/06 04:52:26;;;;;;;8.80;3.10;;;6.60;99.90;;;;;;6069841;23;20176;-42
2022/11/06 04:54:54;;;;;;;5.27;2.97;;;6.60;99.90;;;;;;6069353;23;20154;-43
2022/11/06 04:57:21;;;;;;;5.60;2.57;;;6.60;99.90;;;;;;6069346;23;20186;-45
2022/11/06 04:59:47;;;;;;;10.70;3.73;;;6.60;99.90;;;;;;6069359;23;20167;-42
2022/11/06 05:02:12;;;;;;;7.30;2.30;;;6.50;99.90;;;;;;6069172;23;20627;-42
2022/11/06 05:04:38;;;;;;;6.40;2.30;;;6.50;99.90;;;;;;6069250;23;20158;-42
2022/11/06 05:07:03;;;;;;;7.13;2.03;;;6.60;99.90;;;;;;6043767;23;20170;-43
2022/11/06 05:09:29;;;;;;;4.93;2.23;;;6.70;99.90;;;;;;6069098;23;20235;-44
2022/11/06 05:11:55;;;;;;;5.63;1.60;;;6.70;99.90;;;;;;6069198;23;20594;-42
2022/11/06 05:14:21;;;;;;;4.63;1.80;;;6.80;99.90;;;;;;6069838;23;20213;-43
2022/11/06 05:16:46;;;;;;;3.43;1.23;;;6.80;99.90;;;;;;6069137;23;20189;-43
2022/11/06 05:19:12;;;;;;;6.77;1.73;;;6.80;99.90;;;;;;6069094;23;20179;-44
2022/11/06 05:24:21;;;;;;;4.53;1.43;;;6.70;99.90;;;;;;6069489;23;20489;-45
2022/11/06 05:26:47;;;;;;;5.10;1.57;;;6.70;99.90;;;;;;6069428;23;20155;-44
2022/11/06 05:29:12;;;;;;;4.47;1.67;;;6.60;99.90;;;;;;6043581;23;20221;-43
2022/11/06 05:31:39;;;;;;;5.33;1.60;;;6.60;99.90;;;;;;6068929;23;20217;-43
2022/11/06 05:34:05;;;;;;;7.50;1.87;;;6.60;99.90;;;;;;6069204;23;20162;-43
2022/11/06 05:36:31;;;;;;;8.60;2.23;;;6.50;99.90;;;;;;6068921;23;20541;-43
2022/11/06 05:38:56;;;;;;;7.40;1.80;;;6.40;99.90;;;;;;6068952;23;20624;-42
2022/11/06 05:41:22;;;;;;;12.73;2.13;;;6.40;99.90;;;;;;6068900;23;20238;-42
2022/11/06 05:43:47;;;;;;;4.03;1.43;;;6.40;99.90;;;;;;6069487;23;20157;-42
2022/11/06 05:46:13;;;;;;;5.57;1.80;;;6.40;99.90;;;;;;6069291;23;20180;-42
2022/11/06 05:48:39;;;;;;;4.33;2.00;;;6.30;99.90;;;;;;6068988;23;20174;-43
2022/11/06 05:51:06;;;;;;;7.63;1.83;;;6.30;99.90;;;;;;6069028;23;20214;-44
2022/11/06 05:53:35;;;;;;;2.83;1.40;;;6.30;99.90;;;;;;6068821;23;20152;-43
2022/11/06 05:56:01;;;;;;;9.23;1.73;;;6.30;99.90;;;;;;6043462;23;20502;-43
2022/11/06 05:58:26;;;;;;;5.37;1.83;;;6.30;99.90;;;;;;6068664;23;20269;-43
2022/11/06 06:00:54;;;;;;;6.57;1.50;;;6.30;99.90;;;;;;6068726;23;20186;-43
2022/11/06 06:03:20;;;;;;;7.33;1.93;;;6.20;99.90;;;;;;6068774;23;20600;-47
2022/11/06 06:05:46;;;;;;;7.33;1.60;;;6.30;99.90;;;;;;6068661;23;20239;-48
2022/11/06 06:08:12;;;;;;;7.20;1.57;;;6.30;99.90;;;;;;6068670;23;20181;-42
2022/11/06 06:10:42;;;;;;;4.10;1.37;;;6.20;99.90;;;;;;6068449;23;20212;-43
2022/11/06 06:13:07;;;;;;;5.33;1.33;;;6.20;99.90;;;;;;6068552;23;20159;-42
2022/11/06 06:15:33;;;;;;;9.23;1.70;;;6.30;99.90;;;;;;6069211;23;20163;-42
2022/11/06 06:17:58;;;;;;;6.57;1.60;;;6.30;99.90;;;;;;6069110;23;20185;-43
2022/11/06 06:20:24;;;;;;;9.40;1.77;;;6.30;99.90;;;;;;6068333;23;20166;-43
2022/11/06 06:22:56;;;;;;;6.73;1.40;;;6.30;99.90;;;;;;6068662;23;20171;-43
2022/11/06 06:25:23;;;;;;;4.07;1.50;;;6.30;99.90;;;;;;6068429;23;20167;-42
2022/11/06 06:27:49;;;;;;;3.23;1.70;;;6.30;99.90;;;;;;6068652;23;20186;-44
2022/11/06 06:30:15;;;;;;;5.27;1.70;;;6.30;99.90;;;;;;6068803;23;20240;-45
2022/11/06 06:32:40;;;;;;;8.27;1.90;;;6.30;99.90;;;;;;6068491;23;20237;-43
2022/11/06 06:35:06;;;;;;;7.50;1.70;;;6.20;99.90;;;;;;6068651;23;20169;-44
2022/11/06 06:37:32;;;;;;;4.10;1.60;;;6.20;99.90;;;;;;6042745;23;20216;-42
2022/11/06 06:39:57;;;;;;;6.33;1.67;;;6.10;99.90;;;;;;6068388;23;20188;-45
2022/11/06 06:42:23;;;;;;;8.17;4.63;;;6.10;99.90;;;;;;6068535;23;20205;-45
2022/11/06 06:44:49;;;;;;;7.70;4.90;;;6.10;99.90;;;;;;6068294;23;20170;-40
2022/11/06 06:47:17;;;;;;;12.50;8.43;;;6.10;99.90;;;;;;6068398;23;20189;-43
2022/11/06 06:49:43;;;;;;;10.13;5.37;;;6.10;99.90;;;;;;6068617;23;20238;-45
2022/11/06 06:52:10;;;;;;;9.93;3.80;;;6.00;99.90;;;;;;6068339;23;20579;-43
2022/11/06 06:54:35;;;;;;;3.80;2.57;;;6.10;99.90;;;;;;6068130;23;20498;-43
2022/11/06 06:57:01;;;;;;;7.70;2.13;;;6.00;99.90;;;;;;6068274;23;20161;-43
2022/11/06 06:59:27;;;;;;;7.00;1.80;;;6.00;99.90;;;;;;6068514;23;20199;-40
2022/11/06 07:01:53;;;;;;;3.50;1.73;;;6.10;99.90;;;;;;6044779;23;20199;-45
2022/11/06 07:04:19;;;;;;;3.20;1.87;;;6.10;99.90;;;;;;6069884;23;20173;-45
2022/11/06 07:06:45;;;;;;;5.80;2.07;;;6.20;99.90;;;;;;6069640;23;20485;-43
2022/11/06 07:09:10;;;;;;;4.93;2.03;;;6.30;99.90;;;;;;6069182;23;20199;-45
2022/11/06 07:11:36;;;;;;;6.13;1.63;;;6.40;99.90;;;;;;6068641;23;20237;-44
2022/11/06 07:14:02;;;;;;;8.03;2.30;;;6.40;99.90;;;;;;6068329;23;20192;-45
2022/11/06 07:16:28;;;;;;;6.93;2.40;;;6.40;99.90;;;;;;6069124;23;20150;-41
2022/11/06 07:18:55;;;;;;;9.17;2.30;;;6.50;99.90;;;;;;6068348;23;20516;-42
2022/11/06 07:21:20;;;;;;;7.93;3.20;;;6.60;99.90;;;;;;6068287;23;20287;-45
2022/11/06 07:23:47;;;;;;;5.27;2.67;;;6.60;99.90;;;;;;6069144;23;20596;-45
2022/11/06 07:26:13;;;;;;;9.60;2.03;;;6.70;99.90;;;;;;6042873;23;20604;-44
2022/11/06 07:28:38;;;;;;;7.17;2.80;;;6.70;99.90;;;;;;6068229;23;20176;-45
2022/11/06 07:31:06;;;;;;;4.23;2.30;;;6.70;99.90;;;;;;6068553;23;20185;-42
2022/11/06 07:33:32;;;;;;;7.90;2.20;;;6.80;99.90;;;;;;6068341;23;20164;-44
2022/11/06 07:36:07;;;;;;;9.30;2.10;;;6.80;99.90;;;;;;6068510;23;20144;-44
2022/11/06 07:38:33;;;;;;;4.23;1.50;;;6.90;99.90;;;;;;6068344;23;20254;-44
2022/11/06 07:41:04;;;;;;;7.63;1.83;;;7.10;99.90;;;;;;6068802;23;20162;-44
2022/11/06 07:43:31;;;;;;;6.27;2.03;;;7.20;99.90;;;;;;6068293;23;20602;-44
2022/11/06 07:45:59;;;;;;;4.20;1.60;;;7.30;99.90;;;;;;6068246;23;20161;-45
2022/11/06 07:48:25;;;;;;;5.20;2.10;;;7.40;99.90;;;;;;6069156;23;20193;-46
2022/11/06 07:50:50;;;;;;;7.67;1.80;;;7.40;99.90;;;;;;6068638;23;20186;-46
2022/11/06 07:53:16;;;;;;;5.80;1.93;;;7.40;99.90;;;;;;6068421;23;20155;-47
2022/11/06 07:55:51;;;;;;;4.43;1.83;;;7.40;99.90;;;;;;6068246;23;20165;-47
2022/11/06 07:58:17;;;;;;;7.80;2.20;;;7.40;99.90;;;;;;6042888;23;20331;-48
2022/11/06 08:00:47;;;;;;;10.40;2.40;;;7.50;99.90;;;;;;6069940;23;20158;-47
2022/11/06 08:03:13;;;;;;;5.63;1.90;;;7.60;99.90;;;;;;6070558;23;20241;-47
2022/11/06 08:05:38;;;;;;;6.43;2.00;;;7.70;99.90;;;;;;6069950;23;20155;-46
2022/11/06 08:08:04;;;;;;;11.43;2.17;;;7.90;99.90;;;;;;6069762;23;20175;-47
2022/11/06 08:10:30;;;;;;;7.80;2.17;;;8.00;99.90;;;;;;6069774;23;20515;-49
2022/11/06 08:12:57;;;;;;;7.13;2.33;;;8.20;99.90;;;;;;6069815;23;20188;-46
2022/11/06 08:15:23;;;;;;;4.63;2.40;;;8.40;99.90;;;;;;6069796;23;20243;-47
2022/11/06 08:17:48;;;;;;;8.40;3.00;;;8.50;99.90;;;;;;6069685;23;20209;-46
2022/11/06 08:20:14;;;;;;;7.40;2.90;;;8.50;99.90;;;;;;6069652;23;20171;-46
2022/11/06 08:22:40;;;;;;;9.87;3.17;;;8.60;99.90;;;;;;6069577;23;20181;-48
2022/11/06 08:25:06;;;;;;;11.77;3.97;;;8.70;99.90;;;;;;6069923;23;20163;-46
2022/11/06 08:27:32;;;;;;;10.07;3.47;;;8.70;99.90;;;;;;6069502;23;20186;-45
2022/11/06 08:29:57;;;;;;;9.23;3.60;;;8.80;99.90;;;;;;6069762;23;20185;-46
2022/11/06 08:32:23;;;;;;;7.20;3.33;;;8.90;99.90;;;;;;6069906;23;20599;-47
2022/11/06 08:34:48;;;;;;;10.53;3.23;;;8.90;99.90;;;;;;6069595;23;20142;-48
2022/11/06 08:37:14;;;;;;;5.77;2.97;;;9.00;99.90;;;;;;6069446;23;20562;-46
2022/11/06 08:39:39;;;;;;;10.50;2.93;;;9.00;99.90;;;;;;6069805;23;20183;-47
2022/11/06 08:42:06;;;;;;;7.33;2.83;;;9.00;99.90;;;;;;6069404;23;20598;-46
2022/11/06 08:44:31;;;;;;;14.53;4.00;;;9.00;99.90;;;;;;6069362;23;20251;-47
2022/11/06 08:46:57;;;;;;;6.63;3.20;;;9.10;99.90;;;;;;6069254;23;20190;-46
2022/11/06 08:49:22;;;;;;;8.87;3.60;;;9.20;99.90;;;;;;6069249;23;20631;-48
2022/11/06 08:51:48;;;;;;;14.47;3.87;;;9.20;99.90;;;;;;6069251;23;20726;-46
2022/11/06 08:54:13;;;;;;;8.67;3.63;;;9.30;99.90;;;;;;6068244;23;20159;-47
2022/11/06 08:56:39;;;;;;;9.00;3.73;;;9.40;99.90;;;;;;6069511;23;20188;-47
2022/11/06 08:59:05;;;;;;;7.33;3.77;;;9.40;99.90;;;;;;6044015;23;20176;-45
2022/11/06 09:01:30;;;;;;;9.30;3.40;;;9.50;99.90;;;;;;6069633;23;20156;-48
2022/11/06 09:03:56;;;;;;;7.97;3.10;;;9.60;99.90;;;;;;6069262;23;20152;-47
2022/11/06 09:06:22;;;;;;;7.80;2.83;;;9.80;99.90;;;;;;6069508;23;20170;-46
2022/11/06 09:08:47;;;;;;;9.27;2.90;;;10.00;99.90;;;;;;6069125;23;20184;-48
2022/11/06 09:11:13;;;;;;;8.97;3.30;;;10.20;99.90;;;;;;6069237;23;20207;-47
2022/11/06 09:13:39;;;;;;;7.73;3.17;;;10.30;99.90;;;;;;6069170;23;20254;-46
2022/11/06 09:16:05;;;;;;;8.93;3.27;;;10.40;99.90;;;;;;6069211;23;20163;-45
2022/11/06 09:18:30;;;;;;;7.93;2.47;;;10.50;99.90;;;;;;6068945;23;20175;-47
2022/11/06 09:20:56;;;;;;;10.20;2.80;;;10.60;99.90;;;;;;6069133;23;20187;-47
2022/11/06 09:23:22;;;;;;;7.63;2.60;;;10.70;99.90;;;;;;6068848;23;20271;-48
2022/11/06 09:25:48;;;;;;;6.20;2.13;;;10.70;99.90;;;;;;6069382;23;20164;-48
2022/11/06 09:28:14;;;;;;;8.13;2.63;;;10.70;99.90;;;;;;6068912;23;20183;-47
2022/11/06 09:30:39;;;;;;;13.03;3.77;;;10.70;99.90;;;;;;6068854;23;20187;-47
2022/11/06 09:33:05;;;;;;;9.73;3.10;;;10.80;99.90;;;;;;6069324;23;20492;-47
2022/11/06 09:35:32;;;;;;;10.57;5.00;;;10.80;99.90;;;;;;6069204;23;20530;-46
2022/11/06 09:38:03;;;;;;;6.50;2.40;;;10.90;99.90;;;;;;6069156;23;20508;-49
2022/11/06 09:40:47;;;;;;;5.97;2.60;;;10.90;99.90;;;;;;6068771;23;20198;-47
2022/11/06 09:43:37;;;;;;;7.07;2.00;;;10.90;99.90;;;;;;6069241;23;20152;-49
2022/11/06 09:46:19;;;;;;;11.53;2.40;;;11.00;99.90;;;;;;6069218;23;20147;-47
2022/11/06 09:48:50;;;;;;;6.43;2.07;;;11.20;99.90;;;;;;6069051;23;20193;-49
2022/11/06 09:51:33;;;;;;;5.07;1.90;;;11.30;99.90;;;;;;6068734;23;20185;-49
2022/11/06 09:54:13;;;;;;;8.60;2.80;;;11.30;99.90;;;;;;6069127;23;20507;-50
2022/11/06 09:56:40;;;;;;;4.63;1.87;;;11.40;99.90;;;;;;6068792;23;20144;-49
2022/11/06 09:59:12;;;;;;;9.20;3.10;;;11.50;99.90;;;;;;6068614;23;20250;-48
2022/11/06 10:01:53;;;;;;;4.53;2.40;;;11.60;99.90;;;;;;6069087;23;20235;-46
2022/11/06 10:04:48;;;;;;;9.23;2.87;;;11.60;99.90;;;;;;6069502;23;20574;-43
2022/11/06 10:07:28;;;;;;;8.70;2.80;;;11.70;99.90;;;;;;6043682;23;20182;-46
2022/11/06 10:09:54;;;;;;;7.10;2.53;;;11.70;99.90;;;;;;6068824;23;20574;-45
2022/11/06 10:12:34;;;;;;;4.70;2.13;;;11.70;99.90;;;;;;6069749;23;20163;-46
2022/11/06 10:15:16;;;;;;;9.50;2.27;;;11.80;99.90;;;;;;6069010;23;20150;-46
2022/11/06 10:18:05;;;;;;;7.60;2.37;;;11.90;99.90;;;;;;6068557;23;20618;-46
2022/11/06 10:20:41;;;;;;;10.07;2.97;;;11.90;99.90;;;;;;6068719;23;20154;-45
2022/11/06 10:23:44;;;;;;;9.07;3.10;;;12.00;99.90;;;;;;6068432;23;20556;-43
2022/11/06 10:26:26;;;;;;;5.87;3.03;;;12.00;99.90;;;;;;6043065;23;20239;-43
2022/11/06 10:29:27;;;;;;;8.73;2.53;;;12.10;99.90;;;;;;6043003;23;20681;-45
2022/11/06 10:32:22;;;;;;;8.43;2.67;;;12.10;99.90;;;;;;6043107;23;20167;-46
2022/11/06 10:35:07;;;;;;;5.37;1.67;;;12.20;99.90;;;;;;6068758;23;20152;-44
2022/11/06 10:37:40;;;;;;;7.30;2.00;;;12.20;99.90;;;;;;6068729;23;20179;-42
2022/11/06 10:40:14;;;;;;;11.10;1.90;;;12.20;99.90;;;;;;6068498;23;20172;-42
2022/11/06 10:42:41;;;;;;;3.27;1.67;;;12.30;99.90;;;;;;6068514;23;20194;-43
2022/11/06 10:45:15;;;;;;;5.70;2.03;;;12.40;99.90;;;;;;6068712;23;20536;-45
2022/11/06 10:47:49;;;;;;;8.33;2.93;;;12.40;99.90;;;;;;6068555;23;20175;-43
2022/11/06 10:50:16;;;;;;;5.77;2.30;;;12.50;99.90;;;;;;6042981;23;20239;-43
2022/11/06 10:52:58;;;;;;;5.47;2.30;;;12.50;99.90;;;;;;6043158;23;20163;-45
2022/11/06 10:55:53;;;;;;;10.60;2.30;;;12.50;99.90;;;;;;6068831;23;20147;-43
2022/11/06 10:58:23;;;;;;;7.27;2.63;;;12.50;99.90;;;;;;6069249;23;20614;-43
2022/11/06 11:00:51;;;;;;;5.17;1.80;;;12.60;99.90;;;;;;6069083;23;20144;-45
2022/11/06 11:03:28;;;;;;;15.73;6.33;;;12.50;99.90;;;;;;6068645;23;20488;-42
2022/11/06 11:05:54;;;;;;;12.70;4.70;;;12.50;99.90;;;;;;6068746;23;20231;-44
2022/11/06 11:08:36;;;;;;;6.07;2.30;;;12.50;99.90;;;;;;6068560;23;20664;-44
2022/11/06 11:11:14;;;;;;;7.63;1.93;;;12.50;99.90;;;;;;6068659;23;20175;-43
2022/11/06 11:13:41;;;;;;;6.73;1.97;;;12.60;99.90;;;;;;6068702;23;20273;-45
2022/11/06 11:16:27;;;;;;;4.10;2.00;;;12.60;99.90;;;;;;6068268;23;20152;-45
2022/11/06 11:18:53;;;;;;;13.97;2.57;;;12.70;99.90;;;;;;6068567;23;20172;-43
2022/11/06 11:21:18;;;;;;;5.97;1.87;;;12.70;99.90;;;;;;6043307;23;20242;-43
2022/11/06 11:23:46;;;;;;;5.80;2.50;;;12.90;99.90;;;;;;6068241;23;20487;-47
2022/11/06 11:26:23;;;;;;;7.30;2.30;;;12.90;99.90;;;;;;6042947;23;20164;-44
2022/11/06 11:28:55;;;;;;;9.63;2.30;;;13.00;99.90;;;;;;6068425;23;20251;-42
2022/11/06 11:31:29;;;;;;;4.13;1.67;;;13.00;99.90;;;;;;6042843;23;20206;-44
2022/11/06 11:33:57;;;;;;;6.70;1.87;;;13.00;99.90;;;;;;6070246;23;20151;-42
2022/11/06 11:36:22;;;;;;;4.93;1.90;;;13.00;99.90;;;;;;6070178;23;20610;-44
2022/11/06 11:39:01;;;;;;;6.20;1.93;;;13.00;99.90;;;;;;6072303;23;20183;-44
2022/11/06 11:41:26;;;;;;;5.77;1.60;;;13.10;99.90;;;;;;6044524;23;20188;-43
2022/11/06 11:43:55;;;;;;;3.50;1.60;;;13.10;99.90;;;;;;6070364;23;20163;-43
2022/11/06 11:46:20;;;;;;;3.03;1.50;;;13.10;99.90;;;;;;6070574;23;20156;-43
2022/11/06 11:48:54;;;;;;;3.80;1.20;;;13.20;99.90;;;;;;6070062;23;20487;-44
2022/11/06 11:51:29;;;;;;;5.00;1.50;;;13.20;99.90;;;;;;6069936;23;20193;-43
2022/11/06 11:54:01;;;;;;;4.63;1.87;;;13.20;99.90;;;;;;6070489;23;20144;-45
2022/11/06 11:56:30;;;;;;;3.60;1.93;;;13.20;99.90;;;;;;6070495;23;20211;-43
2022/11/06 11:58:58;;;;;;;4.53;1.70;;;13.20;99.90;;;;;;6069871;23;20179;-45
2022/11/06 12:01:37;;;;;;;9.47;3.50;;;13.20;99.90;;;;;;6069850;23;20155;-43
2022/11/06 12:04:21;;;;;;;3.33;1.50;;;13.20;99.90;;;;;;6044754;23;20152;-44
2022/11/06 12:06:53;;;;;;;4.03;1.40;;;13.20;99.90;;;;;;6070499;23;20172;-45
2022/11/06 12:09:20;;;;;;;4.00;1.50;;;13.30;99.90;;;;;;6070761;23;20189;-46
2022/11/06 12:11:46;;;;;;;2.70;1.30;;;13.40;99.90;;;;;;6069711;23;20155;-45
2022/11/06 12:14:26;;;;;;;5.83;1.50;;;13.50;99.90;;;;;;6069742;23;20164;-45
2022/11/06 12:17:02;;;;;;;4.83;1.40;;;13.50;99.90;;;;;;6070077;23;20139;-44
2022/11/06 12:19:31;;;;;;;2.93;1.50;;;13.60;99.90;;;;;;6069892;23;20585;-44
2022/11/06 12:22:02;;;;;;;2.83;1.23;;;13.60;99.90;;;;;;6069776;23;20606;-45
2022/11/06 12:24:40;;;;;;;3.93;1.40;;;13.60;99.90;;;;;;6070254;23;20531;-45
2022/11/06 12:27:12;;;;;;;7.13;1.60;;;13.60;99.90;;;;;;6070013;23;20514;-46
2022/11/06 12:29:43;;;;;;;4.80;1.63;;;13.60;99.90;;;;;;6044168;23;20187;-44
2022/11/06 12:32:46;;;;;;;3.03;1.10;;;13.70;99.90;;;;;;6069754;23;20476;-47
2022/11/06 12:35:29;;;;;;;4.07;1.10;;;13.70;99.90;;;;;;6044199;23;20183;-45
2022/11/06 12:38:19;;;;;;;2.27;0.90;;;13.80;99.90;;;;;;6069616;23;20190;-47
2022/11/06 12:41:20;;;;;;;2.27;0.90;;;13.90;99.90;;;;;;6044205;23;20233;-45
2022/11/06 12:43:48;;;;;;;3.50;1.17;;;14.90;99.90;;;;;;6049948;23;20608;-48
2022/11/06 12:46:37;;;;;;;2.33;0.97;;;14.20;99.90;;;;;;6069814;23;20187;-46
2022/11/06 12:49:30;;;;;;;2.20;0.80;;;14.30;99.90;;;;;;6069341;23;20307;-48
2022/11/06 12:52:07;;;;;;;1.30;0.87;;;14.30;99.90;;;;;;6069666;23;20523;-44
2022/11/06 12:54:47;;;;;;;3.10;1.47;;;14.30;99.90;;;;;;6070223;23;20148;-44
2022/11/06 12:57:12;;;;;;;5.33;1.63;;;14.20;99.90;;;;;;6070235;23;20183;-49
2022/11/06 12:59:56;;;;;;;4.00;1.10;;;14.10;99.90;;;;;;6070066;23;20160;-48
2022/11/06 13:02:47;;;;;;;1.67;0.80;;;14.00;99.90;;;;;;6070178;23;20144;-48
2022/11/06 13:05:28;;;;;;;3.53;0.93;;;13.90;99.90;;;;;;6069769;23;20223;-48
2022/11/06 13:08:17;;;;;;;2.33;1.00;;;13.80;99.90;;;;;;6069336;23;20179;-50
2022/11/06 13:11:17;;;;;;;2.67;0.87;;;13.80;99.90;;;;;;6069508;23;20175;-47
2022/11/06 13:14:07;;;;;;;1.97;0.80;;;13.70;99.90;;;;;;6069137;23;20148;-49
2022/11/06 13:16:55;;;;;;;3.53;1.03;;;13.70;99.90;;;;;;6069887;23;20195;-49
2022/11/06 13:19:46;;;;;;;2.30;0.90;;;13.70;99.90;;;;;;6069769;23;20472;-49
2022/11/06 13:22:33;;;;;;;2.43;1.20;;;13.70;99.90;;;;;;6069474;23;20172;-50
2022/11/06 13:25:20;;;;;;;3.53;1.10;;;13.70;99.90;;;;;;6069503;23;20150;-49
2022/11/06 13:27:59;;;;;;;4.37;1.37;;;13.80;99.90;;;;;;6069586;23;20511;-44